createdAt,value
2023-02-02T00:09:40.777Z,6.9
2023-02-02T00:15:51.834Z,6.8
2023-02-02T00:28:44.778Z,7.1
2023-02-02T00:54:33.720Z,9.5
2023-02-02T01:07:24.242Z,8.3
2023-02-02T01:14:07.955Z,8.3
2023-02-02T01:20:16.052Z,7.9
2023-02-02T01:26:18.994Z,8.6
2023-02-02T01:32:44.603Z,9.3
2023-02-02T01:51:30.597Z,9.1
2023-02-02T02:04:22.429Z,7.8
2023-02-02T02:11:36.521Z,8
2023-02-02T02:17:45.187Z,8.6
2023-02-02T02:23:45.919Z,8.7
2023-02-02T02:29:52.945Z,7.9
2023-02-02T02:35:46.521Z,8.3
2023-02-02T02:41:37.958Z,8.1
2023-02-02T02:47:52.671Z,8.8
2023-02-02T02:53:49.030Z,8.5
2023-02-02T02:59:53.869Z,8.6
2023-02-02T03:12:29.605Z,9.4
2023-02-02T03:19:01.229Z,9.9
2023-02-02T03:31:22.884Z,8.8
2023-02-02T03:43:31.847Z,9.9
2023-02-02T03:49:35.983Z,9
2023-02-02T04:01:58.028Z,8.3
2023-02-02T04:08:32.257Z,8.6
2023-02-02T04:14:49.372Z,8.3
2023-02-02T04:21:17.772Z,9.2
2023-02-02T04:27:27.819Z,9.4
2023-02-02T04:33:33.270Z,9.2
2023-02-02T04:40:27.850Z,9.1
2023-02-02T04:47:11.913Z,10.3
2023-02-02T04:59:49.725Z,10.2
2023-02-02T05:05:40.716Z,10.3
2023-02-02T05:12:06.027Z,11
2023-02-02T05:18:24.938Z,10.7
2023-02-02T05:24:57.591Z,11.8
2023-02-02T05:30:45.640Z,12.2
2023-02-02T05:36:35.822Z,13.5
2023-02-02T05:42:26.861Z,12.3
2023-02-02T05:48:18.523Z,11.5
2023-02-02T05:54:10.995Z,11.4
2023-02-02T06:00:01.204Z,10.2
2023-02-02T06:05:54.326Z,10.5
2023-02-02T06:11:45.058Z,10.3
2023-02-02T06:17:36.044Z,10.4
2023-02-02T06:23:27.588Z,10.1
2023-02-02T06:29:17.094Z,9.5
2023-02-02T06:35:08.469Z,9.6
2023-02-02T06:41:00.565Z,10.4
2023-02-02T06:46:51.867Z,9.5
2023-02-02T06:52:42.615Z,11
2023-02-02T06:58:33.589Z,9.8
2023-02-02T07:04:25.321Z,10.2
2023-02-02T07:11:22.262Z,9.3
2023-02-02T07:17:10.661Z,9.7
2023-02-02T07:23:02.073Z,8.7
2023-02-02T07:28:53.247Z,8.6
2023-02-02T07:34:44.867Z,8.1
2023-02-02T07:40:35.989Z,8.3
2023-02-02T07:46:26.290Z,8
2023-02-02T07:52:17.851Z,7.7
2023-02-02T07:58:09.743Z,7.4
2023-02-02T08:04:03.046Z,6.8
2023-02-02T08:09:54.839Z,6.8
2023-02-02T08:15:47.394Z,7.7
2023-02-02T08:21:52.890Z,7.7
2023-02-02T08:27:45.307Z,7.8
2023-02-02T08:33:35.494Z,8.9
2023-02-02T08:39:25.480Z,7.9
2023-02-02T08:46:21.922Z,7
2023-02-02T08:52:10.608Z,7.1
2023-02-02T08:58:02.164Z,7.3
2023-02-02T09:03:54.047Z,6.5
2023-02-02T09:09:44.939Z,7.6
2023-02-02T09:15:38.067Z,6.4
2023-02-02T09:21:29.310Z,7.7
2023-02-02T09:27:20.937Z,7.9
2023-02-02T09:33:11.489Z,7.9
2023-02-02T09:39:01.467Z,8.3
2023-02-02T09:44:51.580Z,8.7
2023-02-02T09:50:44.281Z,8.1
2023-02-02T09:56:34.214Z,8.1
2023-02-02T10:02:23.606Z,7.7
2023-02-02T10:08:13.152Z,8.4
2023-02-02T10:14:07.182Z,7
2023-02-02T10:19:57.938Z,7
2023-02-02T10:25:47.842Z,7
2023-02-02T10:31:39.725Z,6.7
2023-02-02T10:37:29.712Z,7
2023-02-02T10:43:19.208Z,7
2023-02-02T10:49:10.609Z,9.1
2023-02-02T10:55:08.730Z,7.1
2023-02-02T11:00:58.379Z,7.3
2023-02-02T11:06:49.891Z,7.3
2023-02-02T11:12:44.370Z,8.2
2023-02-02T11:18:34.886Z,7.1
2023-02-02T11:24:26.512Z,6.9
2023-02-02T11:30:15.538Z,6.8
2023-02-02T11:36:06.388Z,6.3
2023-02-02T11:41:56.704Z,5.8
2023-02-02T11:47:47.392Z,6.2
2023-02-02T11:53:37.533Z,5.5
2023-02-02T11:59:29.069Z,5.6
2023-02-02T12:05:18.205Z,5
2023-02-02T12:11:08.090Z,6.3
2023-02-02T12:16:58.939Z,6.6
2023-02-02T12:22:50.281Z,6.6
2023-02-02T12:28:42.627Z,6.5
2023-02-02T12:34:32.957Z,7.8
2023-02-02T12:40:24.973Z,7.6
2023-02-02T12:46:20.116Z,7.6
2023-02-02T12:52:12.481Z,7
2023-02-02T12:58:02.513Z,7.2
2023-02-02T13:03:52.981Z,6.7
2023-02-02T13:09:45.466Z,6.3
2023-02-02T13:15:36.399Z,6
2023-02-02T13:21:28.489Z,8.3
2023-02-02T13:27:19.936Z,5.9
2023-02-02T13:33:10.770Z,5.8
2023-02-02T13:39:01.729Z,6.7
2023-02-02T13:44:52.921Z,4.7
2023-02-02T13:50:44.688Z,4.4
2023-02-02T13:56:37.124Z,4.4
2023-02-02T14:02:28.176Z,4.4
2023-02-02T14:08:18.308Z,5
2023-02-02T14:14:09.916Z,3.3
2023-02-02T14:20:00.657Z,4.1
2023-02-02T14:25:50.956Z,3.2
2023-02-02T14:31:42.434Z,2.9
2023-02-02T14:37:33.269Z,3
2023-02-02T14:43:24.373Z,3.2
2023-02-02T14:49:14.554Z,3.3
2023-02-02T14:55:06.471Z,3.1
2023-02-02T15:00:56.836Z,3
2023-02-02T15:06:48.361Z,3
2023-02-02T15:12:39.104Z,2.9
2023-02-02T15:18:31.008Z,2.6
2023-02-02T15:24:23.663Z,2.9
2023-02-02T15:30:16.259Z,3.1
2023-02-02T15:36:08.721Z,2.9
2023-02-02T15:41:58.861Z,2.6
2023-02-02T15:47:49.496Z,2.7
2023-02-02T15:53:40.502Z,3.1
2023-02-02T15:59:31.613Z,2.5
2023-02-02T16:05:21.630Z,2.8
2023-02-02T16:11:11.763Z,2.6
2023-02-02T16:17:02.365Z,2.5
2023-02-02T16:22:53.806Z,2.3
2023-02-02T16:28:51.311Z,2.6
2023-02-02T16:34:41.749Z,2.5
2023-02-02T16:40:32.041Z,2.3
2023-02-02T16:46:22.350Z,2.7
2023-02-02T16:52:13.358Z,2.5
2023-02-02T16:58:03.849Z,2.5
2023-02-02T17:03:56.197Z,2.9
2023-02-02T17:09:46.324Z,2.6
2023-02-02T17:15:40.569Z,3.8
2023-02-02T17:21:32.320Z,3
2023-02-02T17:27:24.490Z,3
2023-02-02T17:33:15.951Z,3.2
2023-02-02T17:39:08.220Z,3.3
2023-02-02T17:44:58.735Z,4
2023-02-02T17:50:48.997Z,3.4
2023-02-02T17:56:41.200Z,3.1
2023-02-02T18:02:31.482Z,3.4
2023-02-02T18:08:23.394Z,3.6
2023-02-02T18:14:15.862Z,4.1
2023-02-02T18:20:06.140Z,4.2
2023-02-02T18:25:55.417Z,4.1
2023-02-02T18:31:48.821Z,4.6
2023-02-02T18:37:38.460Z,4.8
2023-02-02T18:43:28.371Z,5.1
2023-02-02T18:49:17.627Z,5.4
2023-02-02T18:55:09.841Z,5.6
2023-02-02T19:01:00.762Z,6.5
2023-02-02T19:06:50.256Z,6.3
2023-02-02T19:12:39.459Z,7.6
2023-02-02T19:18:30.059Z,7.3
2023-02-02T19:24:21.011Z,7.4
2023-02-02T19:30:12.697Z,7.2
2023-02-02T19:36:03.236Z,7.2
2023-02-02T19:41:53.712Z,7.2
2023-02-02T19:47:43.786Z,7.5
2023-02-02T19:53:33.404Z,7.2
2023-02-02T19:59:24.027Z,7.5
2023-02-02T20:05:14.475Z,7.7
2023-02-02T20:11:06.514Z,7.9
2023-02-02T20:16:57.728Z,7.5
2023-02-02T20:22:49.526Z,8.2
2023-02-02T20:28:40.987Z,8
2023-02-02T20:34:31.263Z,7.7
2023-02-02T20:40:22.376Z,7.8
2023-02-02T20:46:14.333Z,7.6
2023-02-02T20:52:05.295Z,7.4
2023-02-02T20:57:54.822Z,7.2
2023-02-02T21:03:45.522Z,6.8
2023-02-02T21:09:34.961Z,7.1
2023-02-02T21:15:24.781Z,6.6
2023-02-02T21:21:15.521Z,6.6
2023-02-02T21:27:05.656Z,6.6
2023-02-02T21:32:55.780Z,6.7
2023-02-02T21:38:46.395Z,6.3
2023-02-02T21:44:37.124Z,6.6
2023-02-02T21:50:31.621Z,6.8
2023-02-02T21:56:21.853Z,7
2023-02-02T22:02:14.592Z,7.6
2023-02-02T22:08:07.609Z,7.1
2023-02-02T22:13:57.631Z,17.5
2023-02-02T22:19:48.028Z,7.3
2023-02-02T22:25:37.622Z,7.7
2023-02-02T22:31:29.097Z,7.8
2023-02-02T22:37:18.300Z,7.6
2023-02-02T22:43:07.821Z,7.2
2023-02-02T22:48:59.175Z,7.8
2023-02-02T22:54:50.639Z,7.1
2023-02-02T23:00:42.238Z,7.5
2023-02-02T23:06:32.937Z,7
2023-02-02T23:12:23.315Z,6.9
2023-02-02T23:18:13.069Z,6.9
2023-02-02T23:25:12.399Z,7.3
2023-02-02T23:31:02.643Z,6.6
2023-02-02T23:36:52.601Z,6
2023-02-02T23:42:42.870Z,5.7
2023-02-02T23:48:33.562Z,5.8
2023-02-02T23:54:25.241Z,5.9
